PGRO Airport Information

Runway Information
Runway 09 Length 6000 ft width 150 ft
Elevation 591 ft Threshold ft Heading 92
Runway 27 Length 6000 ft Width 150 ft
Elevation 607 ft Threshold ft Heading 272
Airport Frequencies
Type A/D Name GUAM CNTR Frequency 118.7 MHZ
Type CTAF Name CTAF Frequency 123.6 MHZ
Type RDO Name RDO Frequency 123.6 MHZ
Airport Navaids
Type NDB Name Rota Frequency 332 KHZ
Airport Weather Information & NOTAM
ADDS - METARS form results

(0605 UTC 31 January 2023)
Data provider http://aviationweather.gov/metar/data/
 
METAR text: PGRO 310555Z 08011KT 7SM SCT015 28/24 A2983
Conditions at: PGRO (ROTA INTL AIRP , MH) observed 0555 UTC 31 January 2023
Temperature: 28.0°C (82°F)
Dewpoint: 24.0°C (75°F) [RH = 79%]
Pressure (altimeter): 29.83 inches Hg (1010.2 mb)
Winds: from the E (80 degrees) at 13 MPH (11 knots; 5.7 m/s)
Visibility: 7 miles (11 km)
Ceiling: at least 12,000 feet AGL
Clouds: scattered clouds at 1500 feet AGL
Weather: no significant weather observed at this time

Forecast for: PGRO (ROTA INTL AIRP , MH)
Text: PGRO 310539Z 3106/0106 10010KT P6SM VCSH SCT016
Forecast period: 0600 UTC 31 January 2023 to 0600 UTC 01 February 2023
Forecast type: FROM: standard forecast or significant change
Winds: from the E (100 degrees) at 12 MPH (10 knots; 5.1 m/s)
Visibility: 6 or more miles (10+ km)
Ceiling: at least 12,000 feet AGL
Clouds: scattered clouds at 1600 feet AGL
Weather: VCSH  (showers in vicinity)